Kezdőlap
METAR-TAF:

METAR-TAF

Repülőterek :

Fort Madison Municipal Airport

Fort Madison, Iowa, Amerikai Egyesült Államok

földrajzi szélesség: 40-40N, földrajzi hosszúság: 091-20W, magasság: 221 m

Jelenlegi meteorológiai megfigyelések

A jelentés 29 perccel ezelõtt készült, 08:35 UTC
Északnyugati szél 4 kt
Hőmérséklet 4°C
Páratartalom 65%
Légköri nyomás 1013 hPa
Látótávolság: 16.1 km
Derült ég

METAR: KFSW 200835Z AUTO 32004KT 10SM CLR 04/M02 A2991 RMK AO2

Idő: 04:04 (09:04 UTC)


TAF: hiányzik

Meteorológiai megfigyelések és előrejelzések több, mint 4000 repülőtéren (METAR és TAF jelentéseket).

A térképen piros és sárga pontok jelzik az elérhető meteorológiai állomásokat.

Mozgassa az egeret a pont fölött, hogy megjelenjen az állomás neve.

Azután kattintson az időjárási megfigyelések és előrejelzések megtekintéséhez.

A térkép megváltoztatása: kattintson a fekete keresztel jelölt zöld gombra ráközelítéshez, a vonallal jelölt zöld gombra távolításhoz, vagy a zöld nyilakra a szomszédos térképek eléréséhez.


METAR-TAF: